createdAt,value
2019-05-02T00:02:01.178Z,32.60
2019-05-02T00:04:30.787Z,36.30
2019-05-02T00:07:09.620Z,30.60
2019-05-02T00:09:47.126Z,27.57
2019-05-02T00:12:19.837Z,34.73
2019-05-02T00:14:49.894Z,30.47
2019-05-02T00:17:25.571Z,31.33
2019-05-02T00:19:52.402Z,26.00
2019-05-02T00:22:23.149Z,26.07
2019-05-02T00:24:53.405Z,27.60
2019-05-02T00:27:24.815Z,28.23
2019-05-02T00:29:58.672Z,27.67
2019-05-02T00:32:26.682Z,27.60
2019-05-02T00:34:57.200Z,24.50
2019-05-02T00:37:27.361Z,24.60
2019-05-02T00:39:57.031Z,24.17
2019-05-02T00:42:26.696Z,26.10
2019-05-02T00:44:56.589Z,28.47
2019-05-02T00:47:33.717Z,22.47
2019-05-02T00:50:06.305Z,18.77
2019-05-02T00:52:37.794Z,16.03
2019-05-02T00:55:08.186Z,19.80
2019-05-02T00:57:38.747Z,15.27
2019-05-02T01:00:13.369Z,13.47
2019-05-02T01:02:52.830Z,20.00
2019-05-02T01:05:25.857Z,13.13
2019-05-02T01:08:01.013Z,12.60
2019-05-02T01:10:35.075Z,10.70
2019-05-02T01:13:05.297Z,16.27
2019-05-02T01:15:39.025Z,13.17
2019-05-02T01:18:07.995Z,18.13
2019-05-02T01:20:38.095Z,13.37
2019-05-02T01:23:08.327Z,15.63
2019-05-02T01:25:40.418Z,16.33
2019-05-02T01:28:29.136Z,13.27
2019-05-02T01:31:26.510Z,17.87
2019-05-02T01:34:19.214Z,18.27
2019-05-02T01:36:56.855Z,16.67
2019-05-02T01:39:26.827Z,14.63
2019-05-02T01:41:59.958Z,17.77
2019-05-02T01:44:31.207Z,15.23
2019-05-02T01:47:01.415Z,15.97
2019-05-02T01:49:31.491Z,11.53
2019-05-02T01:52:02.733Z,13.53
2019-05-02T01:54:32.674Z,13.13
2019-05-02T01:57:03.915Z,13.13
2019-05-02T01:59:35.128Z,13.97
2019-05-02T02:02:05.240Z,13.63
2019-05-02T02:04:36.249Z,12.67
2019-05-02T02:07:06.482Z,13.43
2019-05-02T02:09:38.944Z,12.10
2019-05-02T02:12:11.461Z,10.37
2019-05-02T02:14:41.166Z,19.50
2019-05-02T02:17:15.478Z,11.70
2019-05-02T02:19:48.449Z,8.33
2019-05-02T02:22:33.749Z,10.63
2019-05-02T02:25:38.726Z,15.03
2019-05-02T02:28:10.234Z,18.73
2019-05-02T02:30:40.432Z,13.80
2019-05-02T02:33:13.241Z,9.13
2019-05-02T02:35:49.946Z,7.37
2019-05-02T02:38:16.397Z,9.03
2019-05-02T02:40:46.507Z,11.40
2019-05-02T02:43:32.942Z,11.20
2019-05-02T02:46:15.111Z,13.70
2019-05-02T02:48:45.240Z,10.40
2019-05-02T02:51:24.041Z,8.80
2019-05-02T02:53:46.606Z,10.30
2019-05-02T02:56:16.730Z,13.87
2019-05-02T02:58:48.011Z,10.10
2019-05-02T03:01:27.781Z,19.10
2019-05-02T03:03:50.493Z,9.17
2019-05-02T03:06:19.979Z,9.07
2019-05-02T03:08:49.767Z,10.80
2019-05-02T03:11:23.478Z,13.23
2019-05-02T03:14:09.250Z,7.67
2019-05-02T03:16:45.568Z,12.50
2019-05-02T03:19:14.774Z,11.67
2019-05-02T03:22:00.329Z,11.60
2019-05-02T03:24:27.477Z,14.43
2019-05-02T03:26:58.461Z,12.37
2019-05-02T03:29:39.226Z,11.87
2019-05-02T03:32:14.221Z,10.30
2019-05-02T03:34:47.965Z,10.33
2019-05-02T03:37:10.760Z,12.87
2019-05-02T03:39:41.639Z,19.53
2019-05-02T03:42:12.354Z,12.63
2019-05-02T03:44:41.911Z,8.50
2019-05-02T03:47:14.192Z,7.33
2019-05-02T03:49:48.733Z,7.33
2019-05-02T03:52:16.205Z,9.97
2019-05-02T03:54:50.294Z,7.63
2019-05-02T03:57:31.667Z,6.90
2019-05-02T03:59:53.914Z,5.30
2019-05-02T04:02:24.934Z,8.47
2019-05-02T04:05:00.405Z,8.40
2019-05-02T04:07:39.722Z,5.83
2019-05-02T04:10:01.680Z,7.10
2019-05-02T04:12:32.927Z,10.47
2019-05-02T04:15:02.924Z,7.47
2019-05-02T04:17:35.304Z,5.70
2019-05-02T04:20:09.372Z,11.10
2019-05-02T04:22:42.675Z,6.37
2019-05-02T04:25:11.869Z,10.73
2019-05-02T04:27:42.374Z,6.20
2019-05-02T04:30:14.222Z,9.47
2019-05-02T04:32:49.751Z,28.83
2019-05-02T04:35:15.810Z,7.67
2019-05-02T04:37:45.611Z,9.23
2019-05-02T04:40:18.807Z,8.47
2019-05-02T04:42:51.263Z,9.80
2019-05-02T04:45:29.053Z,5.77
2019-05-02T04:47:58.611Z,8.97
2019-05-02T04:50:29.417Z,10.17
2019-05-02T04:53:01.394Z,9.87
2019-05-02T04:55:33.454Z,7.90
2019-05-02T04:58:03.235Z,10.83
2019-05-02T05:00:35.076Z,14.00
2019-05-02T05:03:15.262Z,16.13
2019-05-02T05:05:40.378Z,11.83
2019-05-02T05:08:17.480Z,12.07
2019-05-02T05:10:45.045Z,8.67
2019-05-02T05:13:19.723Z,10.13
2019-05-02T05:15:51.194Z,12.63
2019-05-02T05:18:18.539Z,8.43
2019-05-02T05:20:52.934Z,15.00
2019-05-02T05:23:51.731Z,8.33
2019-05-02T05:26:20.611Z,9.50
2019-05-02T05:28:53.281Z,6.87
2019-05-02T05:31:26.416Z,13.37
2019-05-02T05:33:57.871Z,9.83
2019-05-02T05:36:32.569Z,8.77
2019-05-02T05:39:02.919Z,12.43
2019-05-02T05:41:31.451Z,10.33
2019-05-02T05:44:05.043Z,17.77
2019-05-02T05:46:40.606Z,11.33
2019-05-02T05:49:12.587Z,13.77
2019-05-02T05:51:38.314Z,20.60
2019-05-02T05:54:12.601Z,18.03
2019-05-02T05:56:43.355Z,12.23
2019-05-02T05:59:14.251Z,10.60
2019-05-02T06:01:44.602Z,14.80
2019-05-02T06:04:24.018Z,15.57
2019-05-02T06:06:54.138Z,8.17
2019-05-02T06:09:26.382Z,9.43
2019-05-02T06:11:56.690Z,10.33
2019-05-02T06:14:26.901Z,10.90
2019-05-02T06:16:57.561Z,11.37
2019-05-02T06:19:27.278Z,9.37
2019-05-02T06:21:57.314Z,9.17
2019-05-02T06:24:27.363Z,10.13
2019-05-02T06:26:56.914Z,10.97
2019-05-02T06:29:27.705Z,12.20
2019-05-02T06:32:01.872Z,5.70
2019-05-02T06:34:32.554Z,29.13
2019-05-02T06:37:02.907Z,12.40
2019-05-02T06:39:33.253Z,10.87
2019-05-02T06:42:03.012Z,7.77
2019-05-02T06:44:33.131Z,8.30
2019-05-02T06:47:04.281Z,9.23
2019-05-02T06:49:34.791Z,8.57
2019-05-02T06:52:04.897Z,7.67
2019-05-02T06:54:34.841Z,9.97
2019-05-02T06:57:04.833Z,8.93
2019-05-02T06:59:35.779Z,9.83
2019-05-02T07:02:06.593Z,8.60
2019-05-02T07:04:37.219Z,11.03
2019-05-02T07:07:07.348Z,6.47
2019-05-02T07:09:40.934Z,8.20
2019-05-02T07:12:14.815Z,9.40
2019-05-02T07:14:45.726Z,7.67
2019-05-02T07:17:39.307Z,10.60
2019-05-02T07:20:10.632Z,11.10
2019-05-02T07:22:45.462Z,6.83
2019-05-02T07:25:17.012Z,10.23
2019-05-02T07:27:48.230Z,9.80
2019-05-02T07:30:18.261Z,27.87
2019-05-02T07:32:47.991Z,44.33
2019-05-02T07:35:19.259Z,27.53
2019-05-02T07:37:50.122Z,22.77
2019-05-02T07:40:21.366Z,5.93
2019-05-02T07:42:51.506Z,81.70
2019-05-02T07:45:21.576Z,13.73
2019-05-02T07:47:53.465Z,2.10
2019-05-02T07:50:23.393Z,1.43
2019-05-02T07:53:04.371Z,0.97
2019-05-02T07:55:35.436Z,2.23
2019-05-02T07:58:06.974Z,9.30
2019-05-02T08:00:37.161Z,3.93
2019-05-02T08:03:06.207Z,2.07
2019-05-02T08:05:36.067Z,2.70
2019-05-02T08:08:05.552Z,2.27
2019-05-02T08:10:35.441Z,1.10
2019-05-02T08:13:05.189Z,1.20
2019-05-02T08:15:35.517Z,0.93
2019-05-02T08:18:08.606Z,0.90
2019-05-02T08:20:38.158Z,3.50
2019-05-02T08:23:08.430Z,8.23
2019-05-02T08:25:41.446Z,2.70
2019-05-02T08:28:33.945Z,1.13
2019-05-02T08:31:03.699Z,2.13
2019-05-02T08:33:34.777Z,0.70
2019-05-02T08:36:04.614Z,1.40
2019-05-02T08:38:34.708Z,3.80
2019-05-02T08:41:04.272Z,0.50
2019-05-02T08:43:33.982Z,0.60
2019-05-02T08:46:04.127Z,0.93
2019-05-02T08:48:36.594Z,0.73
2019-05-02T08:51:06.510Z,1.13
2019-05-02T08:53:36.084Z,1.50
2019-05-02T08:56:05.717Z,1.47
2019-05-02T08:58:35.739Z,2.47
2019-05-02T09:01:09.180Z,34.57
2019-05-02T09:03:54.765Z,1.70
2019-05-02T09:06:08.806Z,1.20
2019-05-02T09:08:38.915Z,3.97
2019-05-02T09:11:14.044Z,0.73
2019-05-02T09:13:42.073Z,1.63
2019-05-02T09:16:12.139Z,3.60
2019-05-02T09:18:51.795Z,3.87
2019-05-02T09:21:18.913Z,2.67
2019-05-02T09:23:48.643Z,1.90
2019-05-02T09:26:31.981Z,1.17
2019-05-02T09:28:51.718Z,0.60
2019-05-02T09:31:22.722Z,3.53
2019-05-02T09:33:55.519Z,3.97
2019-05-02T09:36:25.900Z,4.57
2019-05-02T09:38:57.685Z,2.13
2019-05-02T09:41:32.427Z,3.50
2019-05-02T09:43:59.064Z,9.40
2019-05-02T09:46:29.771Z,1.93
2019-05-02T09:49:02.472Z,3.17
2019-05-02T09:51:33.707Z,2.50
2019-05-02T09:54:06.484Z,7.63
2019-05-02T09:56:36.484Z,2.93
2019-05-02T09:59:24.320Z,3.10
2019-05-02T10:01:42.229Z,3.40
2019-05-02T10:04:12.732Z,3.80
2019-05-02T10:06:42.953Z,1.87
2019-05-02T10:09:13.378Z,1.97
2019-05-02T10:11:43.399Z,1.87
2019-05-02T10:14:14.428Z,3.40
2019-05-02T10:16:44.438Z,3.27
2019-05-02T10:19:13.928Z,3.67
2019-05-02T10:21:47.001Z,8.33
2019-05-02T10:24:14.858Z,3.73
2019-05-02T10:26:44.467Z,2.20
2019-05-02T10:29:15.808Z,3.27
2019-05-02T10:31:45.634Z,2.13
2019-05-02T10:34:17.698Z,3.87
2019-05-02T10:36:51.948Z,2.83
2019-05-02T10:39:18.206Z,1.77
2019-05-02T10:41:48.251Z,4.50
2019-05-02T10:44:17.841Z,0.80
2019-05-02T10:46:58.651Z,2.57
2019-05-02T10:49:49.635Z,4.10
2019-05-02T10:52:21.583Z,1.17
2019-05-02T10:54:52.844Z,1.10
2019-05-02T10:57:25.241Z,2.80
2019-05-02T10:59:56.222Z,4.00
2019-05-02T11:02:44.987Z,1.73
2019-05-02T11:05:22.505Z,3.10
2019-05-02T11:07:56.599Z,1.80
2019-05-02T11:10:23.812Z,5.10
2019-05-02T11:13:05.156Z,2.77
2019-05-02T11:15:57.743Z,3.97
2019-05-02T11:18:40.195Z,2.20
2019-05-02T11:21:06.798Z,1.47
2019-05-02T11:23:32.851Z,0.90
2019-05-02T11:26:02.472Z,1.73
2019-05-02T11:28:37.047Z,2.77
2019-05-02T11:31:08.614Z,4.27
2019-05-02T11:33:39.220Z,2.17
2019-05-02T11:36:13.750Z,0.77
2019-05-02T11:38:49.225Z,1.80
2019-05-02T11:41:17.615Z,1.63
2019-05-02T11:43:47.413Z,4.73
2019-05-02T11:46:22.090Z,2.20
2019-05-02T11:48:56.345Z,3.43
2019-05-02T11:51:24.173Z,3.27
2019-05-02T11:53:54.386Z,1.83
2019-05-02T11:56:23.922Z,1.90
2019-05-02T11:58:54.179Z,2.33
2019-05-02T12:01:35.438Z,2.63
2019-05-02T12:03:58.424Z,2.13
2019-05-02T12:06:28.121Z,1.30
2019-05-02T12:08:58.098Z,1.20
2019-05-02T12:11:28.615Z,2.47
2019-05-02T12:14:01.543Z,3.73
2019-05-02T12:16:32.320Z,4.57
2019-05-02T12:19:11.761Z,6.63
2019-05-02T12:21:34.404Z,5.97
2019-05-02T12:24:06.740Z,2.00
2019-05-02T12:26:36.314Z,2.27
2019-05-02T12:29:05.886Z,3.57
2019-05-02T12:31:35.900Z,2.93
2019-05-02T12:34:07.536Z,2.33
2019-05-02T12:36:38.516Z,3.00
2019-05-02T12:39:09.486Z,1.67
2019-05-02T12:41:42.338Z,1.60
2019-05-02T12:44:14.281Z,2.53
2019-05-02T12:46:47.476Z,2.17
2019-05-02T12:49:26.305Z,2.33
2019-05-02T12:51:48.799Z,2.00
2019-05-02T12:54:18.627Z,0.80
2019-05-02T12:56:49.231Z,3.37
2019-05-02T12:59:19.464Z,6.43
2019-05-02T13:01:51.686Z,5.57
2019-05-02T13:04:22.988Z,0.87
2019-05-02T13:06:53.227Z,3.60
2019-05-02T13:09:23.576Z,1.50
2019-05-02T13:12:00.053Z,0.40
2019-05-02T13:14:32.167Z,1.40
2019-05-02T13:17:05.543Z,2.40
2019-05-02T13:19:39.918Z,3.10
2019-05-02T13:22:16.235Z,1.00
2019-05-02T13:24:54.946Z,0.97
2019-05-02T13:27:24.458Z,1.73
2019-05-02T13:29:54.760Z,3.07
2019-05-02T13:32:34.234Z,1.97
2019-05-02T13:35:34.342Z,3.33
2019-05-02T13:38:08.352Z,4.90
2019-05-02T13:40:45.209Z,1.17
2019-05-02T13:43:18.877Z,2.10
2019-05-02T13:46:12.592Z,3.43
2019-05-02T13:48:42.943Z,2.53
2019-05-02T13:51:16.162Z,1.07
2019-05-02T13:53:57.837Z,2.70
2019-05-02T13:56:47.879Z,4.80
2019-05-02T13:59:22.177Z,1.27
2019-05-02T14:01:53.651Z,7.67
2019-05-02T14:04:24.804Z,3.70
2019-05-02T14:06:56.150Z,2.70
2019-05-02T14:09:45.067Z,5.63
2019-05-02T14:12:21.860Z,1.60
2019-05-02T14:14:51.999Z,1.83
2019-05-02T14:17:22.943Z,1.00
2019-05-02T14:20:07.456Z,2.20
2019-05-02T14:22:25.664Z,1.47
2019-05-02T14:24:56.649Z,2.67
2019-05-02T14:27:27.356Z,8.60
2019-05-02T14:29:57.640Z,3.00
2019-05-02T14:32:28.353Z,3.57
2019-05-02T14:35:18.615Z,0.50
2019-05-02T14:38:09.614Z,1.60
2019-05-02T14:40:52.679Z,0.60
2019-05-02T14:43:46.114Z,1.87
2019-05-02T14:46:12.559Z,1.60
2019-05-02T14:48:45.300Z,1.83
2019-05-02T14:51:22.888Z,1.17
2019-05-02T14:53:52.759Z,5.27
2019-05-02T14:56:46.226Z,0.77
2019-05-02T14:59:15.166Z,2.73
2019-05-02T15:01:50.007Z,2.63
2019-05-02T15:04:22.713Z,0.80
2019-05-02T15:06:53.363Z,2.40
2019-05-02T15:09:26.825Z,9.30
2019-05-02T15:11:59.428Z,0.70
2019-05-02T15:14:37.034Z,2.37
2019-05-02T15:17:07.673Z,0.87
2019-05-02T15:19:38.431Z,4.53
2019-05-02T15:22:07.896Z,3.20
2019-05-02T15:24:38.166Z,6.30
2019-05-02T15:27:16.660Z,6.77
2019-05-02T15:29:39.387Z,2.20
2019-05-02T15:32:46.430Z,4.13
2019-05-02T15:35:42.648Z,1.90
2019-05-02T15:38:19.743Z,3.47
2019-05-02T15:40:50.054Z,1.13
2019-05-02T15:43:16.594Z,1.27
2019-05-02T15:45:46.993Z,4.70
2019-05-02T15:48:22.814Z,1.33
2019-05-02T15:50:52.980Z,2.23
2019-05-02T15:53:49.725Z,2.60
2019-05-02T15:56:20.337Z,2.77
2019-05-02T15:58:52.025Z,7.87
2019-05-02T16:01:49.110Z,2.30
2019-05-02T16:04:24.084Z,4.17
2019-05-02T16:06:53.418Z,1.10
2019-05-02T16:09:24.654Z,2.03
2019-05-02T16:11:56.870Z,1.27
2019-05-02T16:14:34.093Z,1.70
2019-05-02T16:17:01.050Z,6.13
2019-05-02T16:19:32.898Z,3.40
2019-05-02T16:22:32.405Z,3.30
2019-05-02T16:25:05.888Z,1.20
2019-05-02T16:27:49.499Z,4.07
2019-05-02T16:30:29.657Z,8.23
2019-05-02T16:33:02.672Z,1.97
2019-05-02T16:35:34.615Z,2.77
2019-05-02T16:38:04.868Z,3.10
2019-05-02T16:40:35.062Z,4.70
2019-05-02T16:43:04.831Z,1.50
2019-05-02T16:45:34.340Z,5.97
2019-05-02T16:48:05.009Z,5.43
2019-05-02T16:50:37.102Z,2.67
2019-05-02T16:53:06.963Z,5.50
2019-05-02T16:55:37.285Z,4.97
2019-05-02T16:58:07.494Z,1.50
2019-05-02T17:00:42.528Z,6.70
2019-05-02T17:03:09.277Z,2.97
2019-05-02T17:05:44.283Z,3.27
2019-05-02T17:08:27.268Z,0.93
2019-05-02T17:11:15.897Z,2.80
2019-05-02T17:13:45.753Z,3.70
2019-05-02T17:16:17.329Z,0.93
2019-05-02T17:18:48.222Z,6.23
2019-05-02T17:21:18.919Z,1.43
2019-05-02T17:23:51.931Z,1.40
2019-05-02T17:26:22.700Z,1.93
2019-05-02T17:28:53.385Z,2.70
2019-05-02T17:31:23.604Z,1.67
2019-05-02T17:33:54.945Z,3.13
2019-05-02T17:36:28.647Z,1.20
2019-05-02T17:39:03.671Z,3.67
2019-05-02T17:41:31.814Z,5.07
2019-05-02T17:44:03.259Z,5.43
2019-05-02T17:46:33.256Z,3.83
2019-05-02T17:49:04.479Z,1.13
2019-05-02T17:52:04.942Z,2.67
2019-05-02T17:54:26.424Z,3.90
2019-05-02T17:56:57.542Z,1.40
2019-05-02T17:59:33.017Z,1.53
2019-05-02T18:01:59.457Z,1.03
2019-05-02T18:04:29.569Z,1.67
2019-05-02T18:06:59.165Z,4.40
2019-05-02T18:09:31.730Z,0.70
2019-05-02T18:12:01.547Z,1.80
2019-05-02T18:14:31.646Z,0.80
2019-05-02T18:17:01.908Z,3.07
2019-05-02T18:19:32.400Z,1.80
2019-05-02T18:22:03.533Z,2.33
2019-05-02T18:24:37.387Z,2.90
2019-05-02T18:27:05.669Z,4.23
2019-05-02T18:29:41.490Z,0.70
2019-05-02T18:32:09.804Z,3.07
2019-05-02T18:34:41.692Z,2.33
2019-05-02T18:37:11.128Z,1.23
2019-05-02T18:39:49.950Z,4.17
2019-05-02T18:42:16.534Z,4.43
2019-05-02T18:44:48.195Z,4.10
2019-05-02T18:47:20.381Z,1.73
2019-05-02T18:49:53.826Z,1.93
2019-05-02T18:52:35.630Z,2.17
2019-05-02T18:54:57.401Z,1.23
2019-05-02T18:57:29.742Z,2.47
2019-05-02T19:00:02.392Z,4.07
2019-05-02T19:02:35.663Z,2.40
2019-05-02T19:05:13.416Z,0.50
2019-05-02T19:07:42.622Z,0.80
2019-05-02T19:10:12.159Z,0.93
2019-05-02T19:12:42.081Z,2.23
2019-05-02T19:15:13.358Z,1.17
2019-05-02T19:17:45.725Z,3.07
2019-05-02T19:20:58.595Z,1.27
2019-05-02T19:23:31.992Z,3.53
2019-05-02T19:26:14.963Z,2.03
2019-05-02T19:29:08.342Z,3.03
2019-05-02T19:31:46.239Z,1.63
2019-05-02T19:34:16.719Z,2.03
2019-05-02T19:36:46.320Z,1.37
2019-05-02T19:39:16.825Z,2.73
2019-05-02T19:41:47.758Z,0.70
2019-05-02T19:44:21.475Z,0.90
2019-05-02T19:46:49.328Z,1.83
2019-05-02T19:49:19.120Z,3.47
2019-05-02T19:52:08.035Z,3.70
2019-05-02T19:54:41.687Z,1.47
2019-05-02T19:58:02.410Z,1.23
2019-05-02T20:00:36.605Z,1.30
2019-05-02T20:03:04.030Z,2.40
2019-05-02T20:05:33.840Z,1.13
2019-05-02T20:08:06.504Z,1.90
2019-05-02T20:10:36.579Z,2.20
2019-05-02T20:13:07.252Z,2.70
2019-05-02T20:15:42.168Z,2.93
2019-05-02T20:18:12.073Z,3.77
2019-05-02T20:21:11.754Z,0.93
2019-05-02T20:23:43.201Z,1.33
2019-05-02T20:26:15.463Z,1.40
2019-05-02T20:28:45.771Z,1.90
2019-05-02T20:31:16.417Z,4.17
2019-05-02T20:33:46.399Z,1.03
2019-05-02T20:36:16.237Z,4.60
2019-05-02T20:38:46.238Z,1.37
2019-05-02T20:41:18.854Z,3.37
2019-05-02T20:43:48.340Z,0.87
2019-05-02T20:46:18.476Z,0.93
2019-05-02T20:48:48.578Z,2.43
2019-05-02T20:51:19.562Z,1.80
2019-05-02T20:53:52.385Z,4.03
2019-05-02T20:56:22.964Z,2.03
2019-05-02T20:58:52.978Z,1.40
2019-05-02T21:01:23.258Z,1.83
2019-05-02T21:03:53.544Z,3.53
2019-05-02T21:06:49.432Z,1.53
2019-05-02T21:09:29.647Z,1.33
2019-05-02T21:12:05.250Z,4.17
2019-05-02T21:14:39.026Z,2.50
2019-05-02T21:17:13.060Z,1.60
2019-05-02T21:19:44.450Z,1.83
2019-05-02T21:22:22.558Z,0.87
2019-05-02T21:24:53.122Z,2.40
2019-05-02T21:27:23.381Z,2.57
2019-05-02T21:29:53.487Z,4.60
2019-05-02T21:32:23.321Z,2.00
2019-05-02T21:34:53.842Z,0.77
2019-05-02T21:37:26.181Z,1.17
2019-05-02T21:39:57.799Z,2.23
2019-05-02T21:42:28.429Z,6.00
2019-05-02T21:44:58.569Z,0.83
2019-05-02T21:47:31.867Z,1.73
2019-05-02T21:50:13.918Z,2.67
2019-05-02T21:53:18.136Z,1.00
2019-05-02T21:56:12.163Z,4.40
2019-05-02T21:59:02.837Z,1.20
2019-05-02T22:01:34.149Z,1.37
2019-05-02T22:04:04.437Z,1.60
2019-05-02T22:06:38.814Z,1.70
2019-05-02T22:09:12.583Z,0.50
2019-05-02T22:11:44.304Z,3.47
2019-05-02T22:14:14.750Z,0.60
2019-05-02T22:16:46.015Z,1.73
2019-05-02T22:19:20.455Z,2.20
2019-05-02T22:21:52.451Z,3.47
2019-05-02T22:24:22.679Z,2.23
2019-05-02T22:26:53.816Z,2.00
2019-05-02T22:29:23.492Z,2.17
2019-05-02T22:31:54.526Z,1.97
2019-05-02T22:34:24.826Z,0.50
2019-05-02T22:36:55.418Z,1.40
2019-05-02T22:39:42.661Z,2.63
2019-05-02T22:42:13.346Z,0.67
2019-05-02T22:44:44.088Z,0.77
2019-05-02T22:47:14.659Z,0.90
2019-05-02T22:49:44.621Z,1.13
2019-05-02T22:52:16.230Z,2.20
2019-05-02T22:54:46.361Z,3.37
2019-05-02T22:57:16.877Z,1.03
2019-05-02T22:59:46.889Z,1.80
2019-05-02T23:02:17.308Z,1.50
2019-05-02T23:04:47.157Z,5.13
2019-05-02T23:07:17.800Z,0.80
2019-05-02T23:09:47.859Z,1.23
2019-05-02T23:12:17.699Z,2.87
2019-05-02T23:14:47.541Z,1.70
2019-05-02T23:17:19.542Z,1.67
2019-05-02T23:19:49.508Z,0.97
2019-05-02T23:22:21.782Z,0.77
2019-05-02T23:25:29.614Z,2.97
2019-05-02T23:28:03.505Z,1.40
2019-05-02T23:30:34.527Z,3.50
2019-05-02T23:33:04.717Z,4.43
2019-05-02T23:35:35.039Z,3.70
2019-05-02T23:38:04.873Z,1.60
2019-05-02T23:40:35.825Z,2.60
2019-05-02T23:43:06.353Z,2.00
2019-05-02T23:45:36.708Z,1.37
2019-05-02T23:48:06.615Z,2.77
2019-05-02T23:50:36.633Z,1.13
2019-05-02T23:53:06.755Z,0.53
2019-05-02T23:55:37.063Z,1.00
2019-05-02T23:58:07.506Z,0.70
